< Typhoon 198522 1985 Season Typhoon 198524 >
Typhoon 198523 (ELLIS)
General InformationTrack Information on Google MapsDetailed Wind InformationList of All Images || Disaster Info.ResourceGoogle EarthGE AnimationAtom FeedGeoJSON
Detalied Best Track (Time Zone = UTC)
Year Month Day Hour Lat. Long. Pressure (hPa) Wind (kt) Class Image Chart
1985 10 15 12 8.0 155.0 1006 0 2 Image Chart
1985 10 15 18 9.0 154.0 1004 0 2 Image Chart
1985 10 16 00 10.0 153.0 1004 0 2 Image Chart
1985 10 16 06 10.7 152.0 1000 40 3 Image Chart
1985 10 16 12 10.7 151.6 1000 40 3 Image Chart
1985 10 16 18 10.7 151.2 1000 40 3 Image Chart
1985 10 17 00 10.7 150.8 1000 45 3 Image Chart
1985 10 17 06 10.7 150.6 996 45 3 Image Chart
1985 10 17 12 10.2 150.3 996 45 3 Image Chart
1985 10 17 18 9.7 150.1 996 45 3 Image Chart
1985 10 18 00 9.3 149.9 996 50 4 Image Chart
1985 10 18 06 8.7 149.9 996 50 4 Image Chart
1985 10 18 12 8.2 149.4 998 50 4 Image Chart
1985 10 18 18 7.7 148.8 1000 50 4 Image Chart
1985 10 19 00 7.2 148.3 1000 45 3 Image Chart
1985 10 19 06 6.6 148.0 1000 45 3 Image Chart
1985 10 19 12 6.3 147.0 1002 40 3 Image Chart
1985 10 19 18 6.2 146.1 1004 0 2 Image Chart
1985 10 20 00 6.3 145.1 1006 0 2 Image Chart
1985 10 20 06 7.0 144.0 1006 0 2 Image Chart
1985 10 20 12 8.0 143.5 1006 0 2 Image Chart
1985 10 20 18 8.5 142.0 1006 0 2 Image Chart
1985 10 21 00 9.0 140.0 1006 0 2 Image Chart
1985 10 21 06 9.5 138.0 1006 0 2 Image Chart
1985 10 21 12 10.5 137.0 1006 0 2 Image Chart
1985 10 21 18 11.0 136.0 1006 0 2 Image Chart
1985 10 22 00 12.0 135.0 1006 0 2 Image Chart
1985 10 22 06 12.5 134.5 1006 0 2 Image Chart
1985 10 22 12 13.0 134.0 1006 0 2 Image Chart
1985 10 22 18 13.5 133.5 1006 0 2 Image Chart
1985 10 23 00 14.0 133.0 1008 0 2 Image Chart
Japan Meteorological Agency Best Track Data | Correction Date : 1992-10-21
< Typhoon 198522 1985 Season Typhoon 198524 >

Help